sensor_id;sensor_type;location;lat;lon;timestamp;temperature;humidity
4655;DHT22;2340;47.814;9.798;2023-06-04T00:00:08;16.50;99.90
4655;DHT22;2340;47.814;9.798;2023-06-04T00:02:33;16.50;99.90
4655;DHT22;2340;47.814;9.798;2023-06-04T00:04:59;16.40;99.90
4655;DHT22;2340;47.814;9.798;2023-06-04T00:07:24;16.40;99.90
4655;DHT22;2340;47.814;9.798;2023-06-04T00:09:50;16.30;99.90
4655;DHT22;2340;47.814;9.798;2023-06-04T00:12:15;16.20;99.90
4655;DHT22;2340;47.814;9.798;2023-06-04T00:14:42;16.20;99.90
4655;DHT22;2340;47.814;9.798;2023-06-04T00:17:08;16.20;99.90
4655;DHT22;2340;47.814;9.798;2023-06-04T00:19:33;16.20;99.90
4655;DHT22;2340;47.814;9.798;2023-06-04T00:21:59;16.10;99.90
4655;DHT22;2340;47.814;9.798;2023-06-04T00:24:24;16.10;99.90
4655;DHT22;2340;47.814;9.798;2023-06-04T00:26:50;16.10;99.90
4655;DHT22;2340;47.814;9.798;2023-06-04T00:29:16;16.10;99.90
4655;DHT22;2340;47.814;9.798;2023-06-04T00:31:41;16.10;99.90
4655;DHT22;2340;47.814;9.798;2023-06-04T00:34:07;16.10;99.90
4655;DHT22;2340;47.814;9.798;2023-06-04T00:36:32;16.00;99.90
4655;DHT22;2340;47.814;9.798;2023-06-04T00:38:57;16.10;99.90
4655;DHT22;2340;47.814;9.798;2023-06-04T00:41:23;16.10;99.90
4655;DHT22;2340;47.814;9.798;2023-06-04T00:43:48;16.20;99.90
4655;DHT22;2340;47.814;9.798;2023-06-04T00:46:27;16.20;99.90
4655;DHT22;2340;47.814;9.798;2023-06-04T00:48:53;16.20;99.90
4655;DHT22;2340;47.814;9.798;2023-06-04T00:51:20;16.30;99.90
4655;DHT22;2340;47.814;9.798;2023-06-04T00:53:49;16.20;99.90
4655;DHT22;2340;47.814;9.798;2023-06-04T00:56:15;16.20;99.90
4655;DHT22;2340;47.814;9.798;2023-06-04T00:58:41;16.20;99.90
4655;DHT22;2340;47.814;9.798;2023-06-04T01:01:10;16.10;99.90
4655;DHT22;2340;47.814;9.798;2023-06-04T01:03:38;16.10;99.90
4655;DHT22;2340;47.814;9.798;2023-06-04T01:08:34;16.20;99.90
4655;DHT22;2340;47.814;9.798;2023-06-04T01:11:00;16.20;99.90
4655;DHT22;2340;47.814;9.798;2023-06-04T01:13:25;16.20;99.90
4655;DHT22;2340;47.814;9.798;2023-06-04T01:15:51;16.20;99.90
4655;DHT22;2340;47.814;9.798;2023-06-04T01:18:23;16.20;99.90
4655;DHT22;2340;47.814;9.798;2023-06-04T01:21:03;16.20;99.90
4655;DHT22;2340;47.814;9.798;2023-06-04T01:26:10;16.10;99.90
4655;DHT22;2340;47.814;9.798;2023-06-04T01:28:37;16.10;99.90
4655;DHT22;2340;47.814;9.798;2023-06-04T01:31:03;16.00;99.90
4655;DHT22;2340;47.814;9.798;2023-06-04T01:33:29;16.00;99.90
4655;DHT22;2340;47.814;9.798;2023-06-04T01:35:55;15.90;99.90
4655;DHT22;2340;47.814;9.798;2023-06-04T01:38:21;15.90;99.90
4655;DHT22;2340;47.814;9.798;2023-06-04T01:40:46;15.90;99.90
4655;DHT22;2340;47.814;9.798;2023-06-04T01:43:12;15.90;99.90
4655;DHT22;2340;47.814;9.798;2023-06-04T01:45:37;15.90;99.90
4655;DHT22;2340;47.814;9.798;2023-06-04T01:48:03;15.80;99.90
4655;DHT22;2340;47.814;9.798;2023-06-04T01:50:29;15.80;99.90
4655;DHT22;2340;47.814;9.798;2023-06-04T01:52:56;15.80;99.90
4655;DHT22;2340;47.814;9.798;2023-06-04T01:55:22;15.70;99.90
4655;DHT22;2340;47.814;9.798;2023-06-04T01:57:47;15.70;99.90
4655;DHT22;2340;47.814;9.798;2023-06-04T02:00:13;15.60;99.90
4655;DHT22;2340;47.814;9.798;2023-06-04T02:02:41;15.60;99.90
4655;DHT22;2340;47.814;9.798;2023-06-04T02:05:07;15.50;99.90
4655;DHT22;2340;47.814;9.798;2023-06-04T02:07:33;15.50;99.90
4655;DHT22;2340;47.814;9.798;2023-06-04T02:09:59;15.40;99.90
4655;DHT22;2340;47.814;9.798;2023-06-04T02:12:25;15.30;99.90
4655;DHT22;2340;47.814;9.798;2023-06-04T02:14:50;15.20;99.90
4655;DHT22;2340;47.814;9.798;2023-06-04T02:17:16;15.10;99.90
4655;DHT22;2340;47.814;9.798;2023-06-04T02:19:42;15.00;99.90
4655;DHT22;2340;47.814;9.798;2023-06-04T02:22:15;14.90;99.90
4655;DHT22;2340;47.814;9.798;2023-06-04T02:24:41;14.90;99.90
4655;DHT22;2340;47.814;9.798;2023-06-04T02:27:08;14.80;99.90
4655;DHT22;2340;47.814;9.798;2023-06-04T02:29:33;14.80;99.90
4655;DHT22;2340;47.814;9.798;2023-06-04T02:31:59;14.70;99.90
4655;DHT22;2340;47.814;9.798;2023-06-04T02:34:24;14.60;99.90
4655;DHT22;2340;47.814;9.798;2023-06-04T02:36:50;14.60;99.90
4655;DHT22;2340;47.814;9.798;2023-06-04T02:39:19;14.60;99.90
4655;DHT22;2340;47.814;9.798;2023-06-04T02:41:44;14.60;99.90
4655;DHT22;2340;47.814;9.798;2023-06-04T02:44:10;14.60;99.90
4655;DHT22;2340;47.814;9.798;2023-06-04T02:46:36;14.60;99.90
4655;DHT22;2340;47.814;9.798;2023-06-04T02:49:01;14.50;99.90
4655;DHT22;2340;47.814;9.798;2023-06-04T02:51:27;14.50;99.90
4655;DHT22;2340;47.814;9.798;2023-06-04T02:53:53;14.50;99.90
4655;DHT22;2340;47.814;9.798;2023-06-04T02:56:19;14.50;99.90
4655;DHT22;2340;47.814;9.798;2023-06-04T02:58:52;14.50;99.90
4655;DHT22;2340;47.814;9.798;2023-06-04T03:01:19;14.40;99.90
4655;DHT22;2340;47.814;9.798;2023-06-04T03:03:46;14.50;99.90
4655;DHT22;2340;47.814;9.798;2023-06-04T03:06:12;14.50;99.90
4655;DHT22;2340;47.814;9.798;2023-06-04T03:08:39;14.60;99.90
4655;DHT22;2340;47.814;9.798;2023-06-04T03:11:05;14.50;99.90
4655;DHT22;2340;47.814;9.798;2023-06-04T03:13:30;14.50;99.90
4655;DHT22;2340;47.814;9.798;2023-06-04T03:15:56;14.60;99.90
4655;DHT22;2340;47.814;9.798;2023-06-04T03:18:25;14.60;99.90
4655;DHT22;2340;47.814;9.798;2023-06-04T03:20:51;14.60;99.90
4655;DHT22;2340;47.814;9.798;2023-06-04T03:23:18;14.60;99.90
4655;DHT22;2340;47.814;9.798;2023-06-04T03:25:43;14.50;99.90
4655;DHT22;2340;47.814;9.798;2023-06-04T03:28:09;14.50;99.90
4655;DHT22;2340;47.814;9.798;2023-06-04T03:30:35;14.50;99.90
4655;DHT22;2340;47.814;9.798;2023-06-04T03:33:00;14.50;99.90
4655;DHT22;2340;47.814;9.798;2023-06-04T03:35:26;14.60;99.90
4655;DHT22;2340;47.814;9.798;2023-06-04T03:37:51;14.60;99.90
4655;DHT22;2340;47.814;9.798;2023-06-04T03:40:17;14.60;99.90
4655;DHT22;2340;47.814;9.798;2023-06-04T03:42:42;14.60;99.90
4655;DHT22;2340;47.814;9.798;2023-06-04T03:45:08;14.60;99.90
4655;DHT22;2340;47.814;9.798;2023-06-04T03:47:33;14.50;99.90
4655;DHT22;2340;47.814;9.798;2023-06-04T03:49:59;14.50;99.90
4655;DHT22;2340;47.814;9.798;2023-06-04T03:52:24;14.50;99.90
4655;DHT22;2340;47.814;9.798;2023-06-04T03:54:50;14.60;99.90
4655;DHT22;2340;47.814;9.798;2023-06-04T03:57:16;14.60;99.90
4655;DHT22;2340;47.814;9.798;2023-06-04T03:59:41;14.60;99.90
4655;DHT22;2340;47.814;9.798;2023-06-04T04:02:07;14.60;99.90
4655;DHT22;2340;47.814;9.798;2023-06-04T04:04:32;14.50;99.90
4655;DHT22;2340;47.814;9.798;2023-06-04T04:07:00;14.50;99.90
4655;DHT22;2340;47.814;9.798;2023-06-04T04:09:27;14.60;99.90
4655;DHT22;2340;47.814;9.798;2023-06-04T04:11:52;14.70;99.90
4655;DHT22;2340;47.814;9.798;2023-06-04T04:14:18;14.70;99.90
4655;DHT22;2340;47.814;9.798;2023-06-04T04:16:43;14.70;99.90
4655;DHT22;2340;47.814;9.798;2023-06-04T04:19:09;14.80;99.90
4655;DHT22;2340;47.814;9.798;2023-06-04T04:21:34;14.80;99.90
4655;DHT22;2340;47.814;9.798;2023-06-04T04:24:02;14.80;99.90
4655;DHT22;2340;47.814;9.798;2023-06-04T04:26:28;14.90;99.90
4655;DHT22;2340;47.814;9.798;2023-06-04T04:28:54;14.90;99.90
4655;DHT22;2340;47.814;9.798;2023-06-04T04:31:23;14.90;99.90
4655;DHT22;2340;47.814;9.798;2023-06-04T04:33:49;15.00;99.90
4655;DHT22;2340;47.814;9.798;2023-06-04T04:36:16;15.00;99.90
4655;DHT22;2340;47.814;9.798;2023-06-04T04:38:43;15.10;99.90
4655;DHT22;2340;47.814;9.798;2023-06-04T04:41:10;15.20;99.90
4655;DHT22;2340;47.814;9.798;2023-06-04T04:43:37;15.20;99.90
4655;DHT22;2340;47.814;9.798;2023-06-04T04:46:05;15.20;99.90
4655;DHT22;2340;47.814;9.798;2023-06-04T04:48:31;15.20;99.90
4655;DHT22;2340;47.814;9.798;2023-06-04T04:50:56;15.20;99.90
4655;DHT22;2340;47.814;9.798;2023-06-04T04:53:22;15.30;99.90
4655;DHT22;2340;47.814;9.798;2023-06-04T04:55:47;15.20;99.90
4655;DHT22;2340;47.814;9.798;2023-06-04T04:58:13;15.30;99.90
4655;DHT22;2340;47.814;9.798;2023-06-04T05:00:39;15.20;99.90
4655;DHT22;2340;47.814;9.798;2023-06-04T05:03:04;15.20;99.90
4655;DHT22;2340;47.814;9.798;2023-06-04T05:05:31;15.20;99.90
4655;DHT22;2340;47.814;9.798;2023-06-04T05:07:57;15.20;99.90
4655;DHT22;2340;47.814;9.798;2023-06-04T05:10:22;15.30;99.90
4655;DHT22;2340;47.814;9.798;2023-06-04T05:12:54;15.30;99.90
4655;DHT22;2340;47.814;9.798;2023-06-04T05:15:20;15.40;99.90
4655;DHT22;2340;47.814;9.798;2023-06-04T05:17:46;15.50;99.90
4655;DHT22;2340;47.814;9.798;2023-06-04T05:20:12;15.50;99.90
4655;DHT22;2340;47.814;9.798;2023-06-04T05:22:38;15.60;99.90
4655;DHT22;2340;47.814;9.798;2023-06-04T05:25:03;15.60;99.90
4655;DHT22;2340;47.814;9.798;2023-06-04T05:27:29;15.70;99.90
4655;DHT22;2340;47.814;9.798;2023-06-04T05:29:57;15.80;99.90
4655;DHT22;2340;47.814;9.798;2023-06-04T05:32:22;15.90;99.90
4655;DHT22;2340;47.814;9.798;2023-06-04T05:34:48;16.00;99.90
4655;DHT22;2340;47.814;9.798;2023-06-04T05:37:14;16.10;99.90
4655;DHT22;2340;47.814;9.798;2023-06-04T05:39:42;16.10;99.90
4655;DHT22;2340;47.814;9.798;2023-06-04T05:42:07;16.20;99.90
4655;DHT22;2340;47.814;9.798;2023-06-04T05:44:33;16.20;99.90
4655;DHT22;2340;47.814;9.798;2023-06-04T05:46:58;16.20;99.90
4655;DHT22;2340;47.814;9.798;2023-06-04T05:49:24;16.30;99.90
4655;DHT22;2340;47.814;9.798;2023-06-04T05:51:50;16.30;99.90
4655;DHT22;2340;47.814;9.798;2023-06-04T05:54:16;16.40;99.90
4655;DHT22;2340;47.814;9.798;2023-06-04T05:56:41;16.40;99.90
4655;DHT22;2340;47.814;9.798;2023-06-04T05:59:07;16.50;99.90
4655;DHT22;2340;47.814;9.798;2023-06-04T06:01:32;16.60;99.90
4655;DHT22;2340;47.814;9.798;2023-06-04T06:03:58;16.70;99.90
4655;DHT22;2340;47.814;9.798;2023-06-04T06:06:23;16.80;99.90
4655;DHT22;2340;47.814;9.798;2023-06-04T06:08:49;16.80;99.90
4655;DHT22;2340;47.814;9.798;2023-06-04T06:11:15;16.90;99.90
4655;DHT22;2340;47.814;9.798;2023-06-04T06:13:40;17.00;99.90
4655;DHT22;2340;47.814;9.798;2023-06-04T06:16:06;17.00;99.90
4655;DHT22;2340;47.814;9.798;2023-06-04T06:18:32;17.00;99.90
4655;DHT22;2340;47.814;9.798;2023-06-04T06:20:58;17.10;99.90
4655;DHT22;2340;47.814;9.798;2023-06-04T06:23:23;17.10;99.90
4655;DHT22;2340;47.814;9.798;2023-06-04T06:25:49;17.10;99.90
4655;DHT22;2340;47.814;9.798;2023-06-04T06:28:17;17.10;99.90
4655;DHT22;2340;47.814;9.798;2023-06-04T06:30:43;17.20;99.90
4655;DHT22;2340;47.814;9.798;2023-06-04T06:33:09;17.20;99.90
4655;DHT22;2340;47.814;9.798;2023-06-04T06:35:35;17.20;99.90
4655;DHT22;2340;47.814;9.798;2023-06-04T06:38:01;17.20;99.90
4655;DHT22;2340;47.814;9.798;2023-06-04T06:40:27;17.30;99.90
4655;DHT22;2340;47.814;9.798;2023-06-04T06:42:52;17.40;99.90
4655;DHT22;2340;47.814;9.798;2023-06-04T06:45:18;17.40;99.90
4655;DHT22;2340;47.814;9.798;2023-06-04T06:47:44;17.40;99.90
4655;DHT22;2340;47.814;9.798;2023-06-04T06:50:10;17.50;99.90
4655;DHT22;2340;47.814;9.798;2023-06-04T06:52:36;17.60;99.90
4655;DHT22;2340;47.814;9.798;2023-06-04T06:55:03;17.70;99.90
4655;DHT22;2340;47.814;9.798;2023-06-04T06:57:28;17.80;99.90
4655;DHT22;2340;47.814;9.798;2023-06-04T06:59:54;17.80;99.90
4655;DHT22;2340;47.814;9.798;2023-06-04T07:02:19;17.90;99.90
4655;DHT22;2340;47.814;9.798;2023-06-04T07:04:45;17.90;99.90
4655;DHT22;2340;47.814;9.798;2023-06-04T07:07:10;18.00;99.90
4655;DHT22;2340;47.814;9.798;2023-06-04T07:09:36;18.10;99.90
4655;DHT22;2340;47.814;9.798;2023-06-04T07:12:01;18.20;99.90
4655;DHT22;2340;47.814;9.798;2023-06-04T07:14:27;18.20;99.90
4655;DHT22;2340;47.814;9.798;2023-06-04T07:16:52;18.30;99.90
4655;DHT22;2340;47.814;9.798;2023-06-04T07:19:18;18.30;99.90
4655;DHT22;2340;47.814;9.798;2023-06-04T07:21:44;18.40;99.90
4655;DHT22;2340;47.814;9.798;2023-06-04T07:24:09;18.50;99.90
4655;DHT22;2340;47.814;9.798;2023-06-04T07:26:35;18.50;99.90
4655;DHT22;2340;47.814;9.798;2023-06-04T07:29:00;18.60;99.90
4655;DHT22;2340;47.814;9.798;2023-06-04T07:31:26;18.60;99.90
4655;DHT22;2340;47.814;9.798;2023-06-04T07:33:51;18.60;99.90
4655;DHT22;2340;47.814;9.798;2023-06-04T07:36:17;18.70;99.90
4655;DHT22;2340;47.814;9.798;2023-06-04T07:38:43;18.80;99.90
4655;DHT22;2340;47.814;9.798;2023-06-04T07:41:09;18.90;99.90
4655;DHT22;2340;47.814;9.798;2023-06-04T07:43:35;19.00;99.90
4655;DHT22;2340;47.814;9.798;2023-06-04T07:46:03;19.00;99.90
4655;DHT22;2340;47.814;9.798;2023-06-04T07:48:29;19.00;99.90
4655;DHT22;2340;47.814;9.798;2023-06-04T07:50:58;19.10;99.90
4655;DHT22;2340;47.814;9.798;2023-06-04T07:53:23;19.20;99.90
4655;DHT22;2340;47.814;9.798;2023-06-04T07:55:49;19.30;99.90
4655;DHT22;2340;47.814;9.798;2023-06-04T07:58:15;19.30;99.90
4655;DHT22;2340;47.814;9.798;2023-06-04T08:00:40;19.30;99.90
4655;DHT22;2340;47.814;9.798;2023-06-04T08:03:06;19.40;99.90
4655;DHT22;2340;47.814;9.798;2023-06-04T08:05:31;19.40;99.90
4655;DHT22;2340;47.814;9.798;2023-06-04T08:07:57;19.30;99.90
4655;DHT22;2340;47.814;9.798;2023-06-04T08:10:23;19.30;99.90
4655;DHT22;2340;47.814;9.798;2023-06-04T08:12:48;19.30;99.90
4655;DHT22;2340;47.814;9.798;2023-06-04T08:15:14;19.30;99.90
4655;DHT22;2340;47.814;9.798;2023-06-04T08:17:39;19.40;99.90
4655;DHT22;2340;47.814;9.798;2023-06-04T08:20:05;19.40;99.90
4655;DHT22;2340;47.814;9.798;2023-06-04T08:22:37;19.50;99.90
4655;DHT22;2340;47.814;9.798;2023-06-04T08:25:03;19.50;99.90
4655;DHT22;2340;47.814;9.798;2023-06-04T08:27:30;19.70;99.90
4655;DHT22;2340;47.814;9.798;2023-06-04T08:29:56;19.80;99.90
4655;DHT22;2340;47.814;9.798;2023-06-04T08:32:23;19.80;99.90
4655;DHT22;2340;47.814;9.798;2023-06-04T08:34:48;19.80;99.90
4655;DHT22;2340;47.814;9.798;2023-06-04T08:37:14;19.80;99.90
4655;DHT22;2340;47.814;9.798;2023-06-04T08:39:39;19.90;99.90
4655;DHT22;2340;47.814;9.798;2023-06-04T08:42:06;19.90;99.90
4655;DHT22;2340;47.814;9.798;2023-06-04T08:44:34;20.00;99.90
4655;DHT22;2340;47.814;9.798;2023-06-04T08:47:04;20.00;99.90
4655;DHT22;2340;47.814;9.798;2023-06-04T08:49:33;20.00;99.90
4655;DHT22;2340;47.814;9.798;2023-06-04T08:52:00;20.10;99.90
4655;DHT22;2340;47.814;9.798;2023-06-04T08:54:26;20.10;99.90
4655;DHT22;2340;47.814;9.798;2023-06-04T08:56:52;20.20;99.90
4655;DHT22;2340;47.814;9.798;2023-06-04T08:59:17;20.20;99.90
4655;DHT22;2340;47.814;9.798;2023-06-04T09:01:43;20.20;99.90
4655;DHT22;2340;47.814;9.798;2023-06-04T09:04:10;20.30;99.90
4655;DHT22;2340;47.814;9.798;2023-06-04T09:06:37;20.30;99.90
4655;DHT22;2340;47.814;9.798;2023-06-04T09:09:04;20.50;99.90
4655;DHT22;2340;47.814;9.798;2023-06-04T09:11:35;20.50;99.90
4655;DHT22;2340;47.814;9.798;2023-06-04T09:14:01;20.60;99.90
4655;DHT22;2340;47.814;9.798;2023-06-04T09:16:29;20.70;99.90
4655;DHT22;2340;47.814;9.798;2023-06-04T09:19:01;20.80;99.90
4655;DHT22;2340;47.814;9.798;2023-06-04T09:21:27;20.80;99.90
4655;DHT22;2340;47.814;9.798;2023-06-04T09:23:53;20.80;99.90
4655;DHT22;2340;47.814;9.798;2023-06-04T09:26:19;20.80;99.90
4655;DHT22;2340;47.814;9.798;2023-06-04T09:28:46;20.90;99.90
4655;DHT22;2340;47.814;9.798;2023-06-04T09:31:15;20.90;99.90
4655;DHT22;2340;47.814;9.798;2023-06-04T09:33:42;21.00;99.90
4655;DHT22;2340;47.814;9.798;2023-06-04T09:36:07;21.00;99.90
4655;DHT22;2340;47.814;9.798;2023-06-04T09:38:36;21.00;99.90
4655;DHT22;2340;47.814;9.798;2023-06-04T09:41:02;21.10;99.90
4655;DHT22;2340;47.814;9.798;2023-06-04T09:43:30;21.30;99.90
4655;DHT22;2340;47.814;9.798;2023-06-04T09:45:56;21.30;99.90
4655;DHT22;2340;47.814;9.798;2023-06-04T09:48:22;21.40;99.90
4655;DHT22;2340;47.814;9.798;2023-06-04T09:50:48;21.50;99.90
4655;DHT22;2340;47.814;9.798;2023-06-04T09:53:14;21.50;99.90
4655;DHT22;2340;47.814;9.798;2023-06-04T09:55:41;21.60;99.90
4655;DHT22;2340;47.814;9.798;2023-06-04T09:58:06;21.80;99.90
4655;DHT22;2340;47.814;9.798;2023-06-04T10:00:32;21.90;99.90
4655;DHT22;2340;47.814;9.798;2023-06-04T10:03:01;21.90;99.90
4655;DHT22;2340;47.814;9.798;2023-06-04T10:05:27;22.00;99.90
4655;DHT22;2340;47.814;9.798;2023-06-04T10:07:55;22.00;99.90
4655;DHT22;2340;47.814;9.798;2023-06-04T10:10:25;22.00;99.90
4655;DHT22;2340;47.814;9.798;2023-06-04T10:12:59;22.00;99.90
4655;DHT22;2340;47.814;9.798;2023-06-04T10:15:25;21.90;99.90
4655;DHT22;2340;47.814;9.798;2023-06-04T10:17:51;21.90;99.90
4655;DHT22;2340;47.814;9.798;2023-06-04T10:20:18;22.00;99.90
4655;DHT22;2340;47.814;9.798;2023-06-04T10:22:45;22.10;99.90
4655;DHT22;2340;47.814;9.798;2023-06-04T10:25:13;22.20;99.90
4655;DHT22;2340;47.814;9.798;2023-06-04T10:27:39;22.20;99.90
4655;DHT22;2340;47.814;9.798;2023-06-04T10:30:05;22.20;99.90
4655;DHT22;2340;47.814;9.798;2023-06-04T10:32:30;22.30;98.80
4655;DHT22;2340;47.814;9.798;2023-06-04T10:34:56;22.30;99.50
4655;DHT22;2340;47.814;9.798;2023-06-04T10:37:23;22.30;99.90
4655;DHT22;2340;47.814;9.798;2023-06-04T10:39:52;22.40;99.90
4655;DHT22;2340;47.814;9.798;2023-06-04T10:42:18;22.50;99.90
4655;DHT22;2340;47.814;9.798;2023-06-04T10:44:45;22.60;99.80
4655;DHT22;2340;47.814;9.798;2023-06-04T10:47:21;22.70;99.80
4655;DHT22;2340;47.814;9.798;2023-06-04T10:49:48;22.80;98.90
4655;DHT22;2340;47.814;9.798;2023-06-04T10:52:14;22.80;99.00
4655;DHT22;2340;47.814;9.798;2023-06-04T10:54:41;22.90;99.90
4655;DHT22;2340;47.814;9.798;2023-06-04T10:57:17;23.00;99.20
4655;DHT22;2340;47.814;9.798;2023-06-04T10:59:58;23.10;99.80
4655;DHT22;2340;47.814;9.798;2023-06-04T11:02:24;23.20;99.10
4655;DHT22;2340;47.814;9.798;2023-06-04T11:05:03;23.30;98.40
4655;DHT22;2340;47.814;9.798;2023-06-04T11:07:43;23.50;99.00
4655;DHT22;2340;47.814;9.798;2023-06-04T11:10:09;23.60;99.30
4655;DHT22;2340;47.814;9.798;2023-06-04T11:12:48;23.60;98.90
4655;DHT22;2340;47.814;9.798;2023-06-04T11:15:16;23.80;99.80
4655;DHT22;2340;47.814;9.798;2023-06-04T11:18:02;23.90;99.90
4655;DHT22;2340;47.814;9.798;2023-06-04T11:20:27;24.00;99.90
4655;DHT22;2340;47.814;9.798;2023-06-04T11:22:56;24.10;99.20
4655;DHT22;2340;47.814;9.798;2023-06-04T11:25:23;24.30;99.90
4655;DHT22;2340;47.814;9.798;2023-06-04T11:27:49;24.40;99.80
4655;DHT22;2340;47.814;9.798;2023-06-04T11:30:15;24.50;98.70
4655;DHT22;2340;47.814;9.798;2023-06-04T11:32:41;24.70;97.80
4655;DHT22;2340;47.814;9.798;2023-06-04T11:35:07;24.90;96.30
4655;DHT22;2340;47.814;9.798;2023-06-04T11:37:32;25.10;97.20
4655;DHT22;2340;47.814;9.798;2023-06-04T11:39:58;25.20;96.90
4655;DHT22;2340;47.814;9.798;2023-06-04T11:42:28;25.40;95.90
4655;DHT22;2340;47.814;9.798;2023-06-04T11:44:57;25.80;96.50
4655;DHT22;2340;47.814;9.798;2023-06-04T11:47:25;26.40;94.80
4655;DHT22;2340;47.814;9.798;2023-06-04T11:49:57;26.90;94.50
4655;DHT22;2340;47.814;9.798;2023-06-04T11:52:23;27.50;94.20
4655;DHT22;2340;47.814;9.798;2023-06-04T11:54:48;27.70;92.90
4655;DHT22;2340;47.814;9.798;2023-06-04T11:57:14;27.90;92.00
4655;DHT22;2340;47.814;9.798;2023-06-04T11:59:40;27.50;91.50
4655;DHT22;2340;47.814;9.798;2023-06-04T12:02:06;27.20;91.90
4655;DHT22;2340;47.814;9.798;2023-06-04T12:04:32;27.40;91.50
4655;DHT22;2340;47.814;9.798;2023-06-04T12:06:58;27.50;90.70
4655;DHT22;2340;47.814;9.798;2023-06-04T12:09:29;27.60;90.50
4655;DHT22;2340;47.814;9.798;2023-06-04T12:12:00;27.80;90.60
4655;DHT22;2340;47.814;9.798;2023-06-04T12:14:25;28.30;91.30
4655;DHT22;2340;47.814;9.798;2023-06-04T12:17:00;28.90;90.40
4655;DHT22;2340;47.814;9.798;2023-06-04T12:19:26;29.20;90.40
4655;DHT22;2340;47.814;9.798;2023-06-04T12:21:58;28.90;89.20
4655;DHT22;2340;47.814;9.798;2023-06-04T12:24:24;28.40;90.30
4655;DHT22;2340;47.814;9.798;2023-06-04T12:27:00;28.00;89.40
4655;DHT22;2340;47.814;9.798;2023-06-04T12:29:25;28.00;90.30
4655;DHT22;2340;47.814;9.798;2023-06-04T12:31:51;28.10;88.70
4655;DHT22;2340;47.814;9.798;2023-06-04T12:34:26;28.30;90.00
4655;DHT22;2340;47.814;9.798;2023-06-04T12:36:51;28.60;86.20
4655;DHT22;2340;47.814;9.798;2023-06-04T12:39:17;28.80;85.30
4655;DHT22;2340;47.814;9.798;2023-06-04T12:41:44;28.90;83.10
4655;DHT22;2340;47.814;9.798;2023-06-04T12:44:10;29.20;84.20
4655;DHT22;2340;47.814;9.798;2023-06-04T12:46:36;29.50;86.80
4655;DHT22;2340;47.814;9.798;2023-06-04T12:49:01;29.90;85.30
4655;DHT22;2340;47.814;9.798;2023-06-04T12:51:27;30.20;84.50
4655;DHT22;2340;47.814;9.798;2023-06-04T12:53:52;30.30;84.40
4655;DHT22;2340;47.814;9.798;2023-06-04T12:56:18;30.10;82.80
4655;DHT22;2340;47.814;9.798;2023-06-04T12:58:43;29.80;83.20
4655;DHT22;2340;47.814;9.798;2023-06-04T13:01:09;29.60;84.10
4655;DHT22;2340;47.814;9.798;2023-06-04T13:03:39;29.10;82.00
4655;DHT22;2340;47.814;9.798;2023-06-04T13:06:05;28.50;83.00
4655;DHT22;2340;47.814;9.798;2023-06-04T13:08:31;28.30;84.40
4655;DHT22;2340;47.814;9.798;2023-06-04T13:10:57;28.70;86.10
4655;DHT22;2340;47.814;9.798;2023-06-04T13:13:22;29.10;84.20
4655;DHT22;2340;47.814;9.798;2023-06-04T13:15:48;29.40;82.90
4655;DHT22;2340;47.814;9.798;2023-06-04T13:18:13;29.40;81.90
4655;DHT22;2340;47.814;9.798;2023-06-04T13:20:39;29.30;82.50
4655;DHT22;2340;47.814;9.798;2023-06-04T13:23:05;29.20;81.00
4655;DHT22;2340;47.814;9.798;2023-06-04T13:25:31;28.90;82.60
4655;DHT22;2340;47.814;9.798;2023-06-04T13:27:59;28.40;81.40
4655;DHT22;2340;47.814;9.798;2023-06-04T13:30:24;27.80;84.70
4655;DHT22;2340;47.814;9.798;2023-06-04T13:32:50;27.50;84.50
4655;DHT22;2340;47.814;9.798;2023-06-04T13:35:15;27.00;85.20
4655;DHT22;2340;47.814;9.798;2023-06-04T13:37:41;26.60;84.90
4655;DHT22;2340;47.814;9.798;2023-06-04T13:40:06;26.70;85.80
4655;DHT22;2340;47.814;9.798;2023-06-04T13:42:32;27.10;85.90
4655;DHT22;2340;47.814;9.798;2023-06-04T13:44:58;27.60;85.90
4655;DHT22;2340;47.814;9.798;2023-06-04T13:47:24;27.80;85.20
4655;DHT22;2340;47.814;9.798;2023-06-04T13:49:49;27.90;84.80
4655;DHT22;2340;47.814;9.798;2023-06-04T13:52:15;27.60;83.40
4655;DHT22;2340;47.814;9.798;2023-06-04T13:54:41;27.50;83.80
4655;DHT22;2340;47.814;9.798;2023-06-04T13:57:06;27.80;84.10
4655;DHT22;2340;47.814;9.798;2023-06-04T13:59:32;28.20;82.70
4655;DHT22;2340;47.814;9.798;2023-06-04T14:01:59;28.30;83.00
4655;DHT22;2340;47.814;9.798;2023-06-04T14:04:25;28.30;82.10
4655;DHT22;2340;47.814;9.798;2023-06-04T14:06:50;28.30;80.20
4655;DHT22;2340;47.814;9.798;2023-06-04T14:09:16;28.40;82.50
4655;DHT22;2340;47.814;9.798;2023-06-04T14:11:41;28.60;83.40
4655;DHT22;2340;47.814;9.798;2023-06-04T14:14:07;28.30;80.30
4655;DHT22;2340;47.814;9.798;2023-06-04T14:16:32;28.30;81.40
4655;DHT22;2340;47.814;9.798;2023-06-04T14:18:59;28.40;81.70
4655;DHT22;2340;47.814;9.798;2023-06-04T14:21:25;28.70;81.90
4655;DHT22;2340;47.814;9.798;2023-06-04T14:23:51;29.00;80.60
4655;DHT22;2340;47.814;9.798;2023-06-04T14:26:17;28.80;80.60
4655;DHT22;2340;47.814;9.798;2023-06-04T14:28:43;28.50;82.20
4655;DHT22;2340;47.814;9.798;2023-06-04T14:31:08;28.70;82.40
4655;DHT22;2340;47.814;9.798;2023-06-04T14:33:34;29.00;81.50
4655;DHT22;2340;47.814;9.798;2023-06-04T14:36:00;29.10;79.40
4655;DHT22;2340;47.814;9.798;2023-06-04T14:38:26;29.40;79.70
4655;DHT22;2340;47.814;9.798;2023-06-04T14:40:51;29.60;79.20
4655;DHT22;2340;47.814;9.798;2023-06-04T14:43:17;29.60;80.30
4655;DHT22;2340;47.814;9.798;2023-06-04T14:45:42;29.30;79.90
4655;DHT22;2340;47.814;9.798;2023-06-04T14:48:08;28.90;80.70
4655;DHT22;2340;47.814;9.798;2023-06-04T14:50:34;29.10;80.00
4655;DHT22;2340;47.814;9.798;2023-06-04T14:52:59;28.70;79.20
4655;DHT22;2340;47.814;9.798;2023-06-04T14:55:25;28.20;79.10
4655;DHT22;2340;47.814;9.798;2023-06-04T14:57:50;28.00;81.10
4655;DHT22;2340;47.814;9.798;2023-06-04T15:00:16;28.30;81.80
4655;DHT22;2340;47.814;9.798;2023-06-04T15:02:42;28.60;82.10
4655;DHT22;2340;47.814;9.798;2023-06-04T15:05:07;28.50;81.30
4655;DHT22;2340;47.814;9.798;2023-06-04T15:07:33;28.10;79.30
4655;DHT22;2340;47.814;9.798;2023-06-04T15:09:58;28.10;81.00
4655;DHT22;2340;47.814;9.798;2023-06-04T15:12:24;28.30;80.80
4655;DHT22;2340;47.814;9.798;2023-06-04T15:14:50;28.60;82.40
4655;DHT22;2340;47.814;9.798;2023-06-04T15:17:15;28.50;80.00
4655;DHT22;2340;47.814;9.798;2023-06-04T15:19:41;28.20;81.30
4655;DHT22;2340;47.814;9.798;2023-06-04T15:22:06;27.90;81.80
4655;DHT22;2340;47.814;9.798;2023-06-04T15:24:32;27.40;82.60
4655;DHT22;2340;47.814;9.798;2023-06-04T15:26:57;27.00;83.20
4655;DHT22;2340;47.814;9.798;2023-06-04T15:29:23;26.60;83.60
4655;DHT22;2340;47.814;9.798;2023-06-04T15:31:48;26.40;83.80
4655;DHT22;2340;47.814;9.798;2023-06-04T15:34:15;26.20;84.30
4655;DHT22;2340;47.814;9.798;2023-06-04T15:36:40;26.40;84.50
4655;DHT22;2340;47.814;9.798;2023-06-04T15:39:06;26.80;85.00
4655;DHT22;2340;47.814;9.798;2023-06-04T15:41:31;26.80;84.20
4655;DHT22;2340;47.814;9.798;2023-06-04T15:43:57;26.90;83.40
4655;DHT22;2340;47.814;9.798;2023-06-04T15:46:23;26.90;82.80
4655;DHT22;2340;47.814;9.798;2023-06-04T15:48:49;26.90;80.50
4655;DHT22;2340;47.814;9.798;2023-06-04T15:51:15;27.00;83.10
4655;DHT22;2340;47.814;9.798;2023-06-04T15:53:40;27.10;84.70
4655;DHT22;2340;47.814;9.798;2023-06-04T15:56:06;26.90;86.10
4655;DHT22;2340;47.814;9.798;2023-06-04T15:58:31;26.70;84.40
4655;DHT22;2340;47.814;9.798;2023-06-04T16:00:57;26.70;82.10